Time;durP1;ratioP1;P1;durP2;ratioP2;P2;SDS_P1;SDS_P2;PMS_P1;PMS_P2;Temp;Humidity;BMP_temperature;BMP_pressure;BME280_temperature;BME280_humidity;BME280_pressure;Samples;Min_cycle;Max_cycle;Signal;HPM_P1;HPM_P2
2021/12/02 00:01:13;;;;;;;1.67;0.80;;;7.30;95.80;;;;;;5097277;28;20434;-43
2021/12/02 00:03:39;;;;;;;1.10;0.60;;;7.20;95.80;;;;;;5096818;28;20500;-43
2021/12/02 00:06:09;;;;;;;1.20;0.80;;;7.20;95.70;;;;;;5105219;28;20450;-44
2021/12/02 00:08:35;;;;;;;1.10;0.67;;;7.20;95.70;;;;;;5102992;28;20703;-44
2021/12/02 00:11:01;;;;;;;1.20;0.60;;;7.20;95.60;;;;;;5105552;28;20443;-44
2021/12/02 00:13:29;;;;;;;1.40;0.90;;;7.20;95.60;;;;;;5097774;28;20449;-44
2021/12/02 00:21:09;;;;;;;0.90;0.50;;;7.10;95.50;;;;;;5097616;28;20192;-44
2021/12/02 00:23:37;;;;;;;1.07;0.60;;;7.00;95.40;;;;;;5097140;28;20459;-44
2021/12/02 00:26:15;;;;;;;1.47;0.87;;;7.00;95.40;;;;;;5097463;28;20808;-44
2021/12/02 00:28:40;;;;;;;1.60;1.00;;;7.00;95.30;;;;;;5098802;28;20799;-45
2021/12/02 00:31:14;;;;;;;1.50;0.70;;;7.00;95.20;;;;;;5103573;28;20429;-41
2021/12/02 00:33:43;;;;;;;1.33;1.03;;;6.90;95.20;;;;;;5110767;28;20284;-44
2021/12/02 00:36:14;;;;;;;2.10;1.17;;;6.90;95.20;;;;;;5108636;28;20448;-42
2021/12/02 00:38:44;;;;;;;1.37;0.80;;;6.90;95.20;;;;;;5108673;28;20723;-44
2021/12/02 00:41:17;;;;;;;2.07;0.77;;;6.90;95.20;;;;;;5109898;28;20485;-45
2021/12/02 00:43:44;;;;;;;1.13;0.67;;;6.80;95.20;;;;;;5107564;28;20454;-45
2021/12/02 00:46:11;;;;;;;2.40;0.90;;;6.80;95.20;;;;;;5109715;28;20775;-45
2021/12/02 00:48:38;;;;;;;2.03;0.60;;;6.80;95.50;;;;;;5111274;28;20415;-45
2021/12/02 00:51:04;;;;;;;1.30;0.77;;;6.80;95.30;;;;;;5107970;28;20441;-45
2021/12/02 00:53:32;;;;;;;1.77;0.70;;;6.80;95.30;;;;;;5105325;28;20461;-45
2021/12/02 00:56:02;;;;;;;0.90;0.50;;;6.80;95.30;;;;;;5100777;28;20450;-45
2021/12/02 00:58:28;;;;;;;1.10;0.70;;;6.80;95.30;;;;;;5102734;28;20773;-45
2021/12/02 01:00:53;;;;;;;1.80;0.70;;;6.70;95.20;;;;;;5110755;28;20524;-45
2021/12/02 01:03:20;;;;;;;1.67;0.50;;;6.80;95.30;;;;;;5119655;28;20464;-44
2021/12/02 01:05:46;;;;;;;1.30;0.63;;;6.70;95.20;;;;;;5119903;28;20432;-45
2021/12/02 01:08:13;;;;;;;1.87;0.70;;;6.70;95.20;;;;;;5119706;28;20673;-45
2021/12/02 01:10:40;;;;;;;1.57;0.70;;;6.60;95.10;;;;;;5119309;28;20267;-45
2021/12/02 01:13:06;;;;;;;1.00;0.60;;;6.60;95.10;;;;;;5118339;28;20460;-45
2021/12/02 01:15:31;;;;;;;0.90;0.50;;;6.60;95.10;;;;;;5120503;28;20474;-45
2021/12/02 01:17:57;;;;;;;1.20;0.80;;;6.50;95.00;;;;;;5120647;28;20183;-45
2021/12/02 01:20:23;;;;;;;1.63;0.80;;;6.50;95.00;;;;;;5119767;28;20195;-45
2021/12/02 01:22:49;;;;;;;1.37;0.70;;;6.40;95.00;;;;;;5120486;28;20195;-45
2021/12/02 01:25:18;;;;;;;1.50;0.50;;;6.40;95.10;;;;;;5119937;28;20206;-45
2021/12/02 01:27:47;;;;;;;1.57;0.90;;;6.40;95.20;;;;;;5120661;28;20687;-44
2021/12/02 01:30:13;;;;;;;2.33;1.00;;;6.40;95.20;;;;;;5120275;28;20429;-44
2021/12/02 01:32:39;;;;;;;1.10;0.63;;;6.40;95.30;;;;;;5120199;28;20413;-45
2021/12/02 01:35:06;;;;;;;1.57;0.97;;;6.40;95.30;;;;;;5118806;28;20425;-45
2021/12/02 01:37:32;;;;;;;1.10;0.70;;;6.40;95.30;;;;;;5120274;28;20426;-43
2021/12/02 01:39:58;;;;;;;2.50;1.33;;;6.40;95.40;;;;;;5120018;28;20430;-44
2021/12/02 01:42:26;;;;;;;1.10;0.57;;;6.40;95.50;;;;;;5120762;28;20681;-43
2021/12/02 01:44:56;;;;;;;2.00;0.93;;;6.40;95.50;;;;;;5119766;28;20479;-44
2021/12/02 01:47:31;;;;;;;1.30;0.87;;;6.40;95.60;;;;;;5120230;28;20448;-44
2021/12/02 01:50:00;;;;;;;3.43;0.80;;;6.50;95.60;;;;;;5119707;28;20795;-44
2021/12/02 01:52:30;;;;;;;1.67;0.80;;;6.50;95.70;;;;;;5120034;28;20418;-43
2021/12/02 01:55:08;;;;;;;1.10;0.67;;;6.50;95.70;;;;;;5118651;28;20481;-43
2021/12/02 01:57:37;;;;;;;1.20;0.60;;;6.50;95.70;;;;;;5119982;28;20519;-44
2021/12/02 02:00:20;;;;;;;1.13;0.90;;;6.50;95.70;;;;;;5119734;28;20420;-44
2021/12/02 02:02:47;;;;;;;1.70;1.00;;;6.50;95.70;;;;;;5118980;28;20410;-44
2021/12/02 02:05:14;;;;;;;2.40;0.60;;;6.60;95.80;;;;;;5118815;28;20704;-44
2021/12/02 02:07:52;;;;;;;2.07;0.90;;;6.50;95.80;;;;;;5118592;28;20409;-44
2021/12/02 02:10:18;;;;;;;1.87;0.80;;;6.60;95.90;;;;;;5119277;28;20883;-44
2021/12/02 02:13:21;;;;;;;1.20;0.70;;;6.50;95.90;;;;;;5119229;28;20409;-44
2021/12/02 02:15:50;;;;;;;1.70;0.90;;;6.50;95.90;;;;;;5119593;28;20425;-44
2021/12/02 02:18:23;;;;;;;1.80;0.90;;;6.50;96.00;;;;;;5119740;28;20416;-44
2021/12/02 02:23:26;;;;;;;2.40;0.80;;;6.50;96.00;;;;;;5119717;28;20551;-44
2021/12/02 02:25:52;;;;;;;1.67;0.97;;;6.50;96.00;;;;;;5118513;28;20437;-44
2021/12/02 02:28:18;;;;;;;1.43;0.73;;;6.50;96.10;;;;;;5118785;28;20510;-44
2021/12/02 02:30:44;;;;;;;1.30;0.70;;;6.50;96.10;;;;;;5119077;28;20442;-44
2021/12/02 02:33:11;;;;;;;1.57;0.83;;;6.50;96.20;;;;;;5119441;28;20168;-44
2021/12/02 02:35:38;;;;;;;1.10;0.90;;;6.50;96.20;;;;;;5118976;28;20426;-44
2021/12/02 02:38:04;;;;;;;1.40;0.70;;;6.40;96.20;;;;;;5119401;28;20410;-44
2021/12/02 02:40:31;;;;;;;1.40;1.10;;;6.40;96.20;;;;;;5119296;28;20434;-44
2021/12/02 02:43:00;;;;;;;1.40;0.93;;;6.40;96.20;;;;;;5118992;28;20442;-44
2021/12/02 02:45:26;;;;;;;2.83;0.73;;;6.40;96.30;;;;;;5119303;28;20729;-43
2021/12/02 02:47:52;;;;;;;2.27;0.90;;;6.40;96.30;;;;;;5118899;28;20413;-44
2021/12/02 02:50:18;;;;;;;1.53;0.83;;;6.40;96.30;;;;;;5119129;28;20429;-44
2021/12/02 02:52:45;;;;;;;1.63;0.63;;;6.30;96.30;;;;;;5117316;28;20407;-44
2021/12/02 02:55:15;;;;;;;1.33;0.87;;;6.30;96.30;;;;;;5119072;28;20186;-44
2021/12/02 02:58:28;;;;;;;2.33;0.80;;;6.30;96.40;;;;;;5118505;28;20417;-44
2021/12/02 03:00:47;;;;;;;1.33;0.80;;;6.30;96.40;;;;;;5112752;28;20533;-44
2021/12/02 03:03:25;;;;;;;2.27;0.80;;;6.30;96.40;;;;;;5118250;28;20469;-47
2021/12/02 03:08:45;;;;;;;1.00;0.60;;;6.30;96.40;;;;;;5118384;28;20401;-44
2021/12/02 03:11:13;;;;;;;1.53;0.60;;;6.20;96.40;;;;;;5117320;28;20441;-44
2021/12/02 03:13:47;;;;;;;1.03;0.50;;;6.20;96.30;;;;;;5116896;28;20434;-44
2021/12/02 03:18:57;;;;;;;1.00;0.70;;;6.20;96.30;;;;;;5117134;28;20436;-44
2021/12/02 03:21:23;;;;;;;0.90;0.43;;;6.10;96.20;;;;;;5117280;28;20836;-44
2021/12/02 03:23:55;;;;;;;2.37;1.00;;;6.10;96.20;;;;;;5117351;28;20203;-44
2021/12/02 03:26:21;;;;;;;1.40;0.50;;;6.00;96.20;;;;;;5117803;28;20433;-44
2021/12/02 03:28:51;;;;;;;3.63;0.90;;;6.00;96.20;;;;;;5117833;28;20412;-44
2021/12/02 03:31:17;;;;;;;1.47;0.60;;;6.00;96.20;;;;;;5118492;28;20438;-42
2021/12/02 03:33:43;;;;;;;0.70;0.40;;;5.90;96.10;;;;;;5118500;28;20412;-44
2021/12/02 03:36:10;;;;;;;1.07;0.50;;;5.90;96.20;;;;;;5118207;28;20702;-44
2021/12/02 03:38:36;;;;;;;1.20;0.70;;;5.80;96.00;;;;;;5118467;28;20186;-44
2021/12/02 03:41:01;;;;;;;0.80;0.40;;;5.90;96.10;;;;;;5118437;28;20690;-44
2021/12/02 03:43:32;;;;;;;0.80;0.50;;;5.80;96.00;;;;;;5117397;28;20461;-44
2021/12/02 03:45:58;;;;;;;1.20;0.60;;;5.80;96.00;;;;;;5117382;28;20187;-44
2021/12/02 03:48:23;;;;;;;1.07;0.50;;;5.70;95.90;;;;;;5117825;28;20439;-44
2021/12/02 03:50:49;;;;;;;3.43;0.63;;;5.70;96.00;;;;;;5117169;28;20253;-44
2021/12/02 03:53:15;;;;;;;1.13;0.50;;;5.70;96.00;;;;;;5118055;28;20313;-44
2021/12/02 03:55:40;;;;;;;1.20;0.70;;;5.70;96.10;;;;;;5118136;28;20252;-43
2021/12/02 03:58:06;;;;;;;2.43;0.63;;;5.70;96.10;;;;;;5117159;28;20280;-44
2021/12/02 04:00:31;;;;;;;1.17;0.50;;;5.70;96.00;;;;;;5118249;28;20188;-44
2021/12/02 04:02:57;;;;;;;2.13;0.70;;;5.70;96.10;;;;;;5118257;28;20607;-44
2021/12/02 04:05:22;;;;;;;1.30;0.53;;;5.70;96.10;;;;;;5121313;28;20213;-44
2021/12/02 04:07:48;;;;;;;2.93;0.57;;;5.70;96.10;;;;;;5121306;28;20183;-44
2021/12/02 04:10:14;;;;;;;1.50;0.80;;;5.70;96.10;;;;;;5120823;28;20236;-44
2021/12/02 04:15:22;;;;;;;1.30;0.53;;;5.70;96.20;;;;;;5119817;28;20427;-44
2021/12/02 04:17:48;;;;;;;1.13;0.53;;;5.70;96.20;;;;;;5120279;28;20445;-44
2021/12/02 04:20:19;;;;;;;1.33;0.60;;;5.70;96.30;;;;;;5119769;28;20840;-44
2021/12/02 04:22:45;;;;;;;1.23;0.40;;;5.70;96.30;;;;;;5120970;28;20175;-44
2021/12/02 04:25:13;;;;;;;1.50;0.70;;;5.80;96.40;;;;;;5120866;28;20433;-44
2021/12/02 04:27:38;;;;;;;2.33;0.80;;;5.80;96.40;;;;;;5120432;28;20507;-44
2021/12/02 04:30:07;;;;;;;3.70;0.80;;;5.80;96.40;;;;;;5120611;28;20524;-44
2021/12/02 04:32:33;;;;;;;2.03;0.70;;;5.80;96.40;;;;;;5120924;28;20421;-44
2021/12/02 04:34:58;;;;;;;1.50;0.53;;;5.80;96.40;;;;;;5120420;28;20891;-44
2021/12/02 04:37:24;;;;;;;1.30;0.50;;;5.80;96.40;;;;;;5120992;28;20184;-44
2021/12/02 04:39:50;;;;;;;1.20;0.63;;;5.80;96.50;;;;;;5120898;28;20194;-44
2021/12/02 04:42:15;;;;;;;1.10;0.60;;;5.80;96.50;;;;;;5121103;28;20400;-44
2021/12/02 04:44:41;;;;;;;1.70;0.57;;;5.80;96.60;;;;;;5120861;28;20234;-44
2021/12/02 04:47:06;;;;;;;1.77;0.90;;;5.80;96.60;;;;;;5120435;28;20455;-44
2021/12/02 04:49:32;;;;;;;2.20;0.73;;;5.80;96.60;;;;;;5120981;28;20183;-43
2021/12/02 04:51:58;;;;;;;3.43;0.70;;;5.80;96.60;;;;;;5120224;28;20211;-44
2021/12/02 04:54:24;;;;;;;1.20;0.67;;;5.80;96.60;;;;;;5119500;28;20237;-44
2021/12/02 04:56:50;;;;;;;1.37;0.80;;;5.80;96.60;;;;;;5120102;28;20425;-44
2021/12/02 04:59:15;;;;;;;2.03;0.90;;;5.80;96.60;;;;;;5118939;28;20184;-44
2021/12/02 05:01:41;;;;;;;1.60;0.90;;;5.80;96.60;;;;;;5118590;28;20240;-44
2021/12/02 05:04:07;;;;;;;1.80;1.17;;;5.80;96.70;;;;;;5118718;28;20211;-47
2021/12/02 05:06:32;;;;;;;1.60;1.00;;;5.90;96.70;;;;;;5118936;28;20176;-47
2021/12/02 05:08:58;;;;;;;1.57;0.70;;;5.90;96.70;;;;;;5119304;28;20172;-47
2021/12/02 05:11:24;;;;;;;3.47;0.90;;;5.90;96.80;;;;;;5119307;28;20585;-46
2021/12/02 05:13:50;;;;;;;1.37;0.60;;;6.00;96.70;;;;;;5119901;28;20183;-47
2021/12/02 05:16:16;;;;;;;1.60;0.73;;;6.00;96.60;;;;;;5118635;28;20791;-46
2021/12/02 05:18:41;;;;;;;1.93;0.97;;;6.00;96.60;;;;;;5118621;28;20188;-46
2021/12/02 05:21:07;;;;;;;1.40;0.73;;;6.00;96.50;;;;;;5118864;28;20436;-46
2021/12/02 05:23:33;;;;;;;1.87;0.90;;;6.00;96.50;;;;;;5117925;28;20318;-46
2021/12/02 05:25:59;;;;;;;2.13;1.17;;;6.10;96.50;;;;;;5117368;28;20516;-46
2021/12/02 05:28:24;;;;;;;1.47;0.87;;;6.00;96.30;;;;;;5117848;28;20193;-47
2021/12/02 05:30:50;;;;;;;1.33;0.70;;;6.00;96.40;;;;;;5118693;28;20229;-47
2021/12/02 05:33:16;;;;;;;1.10;0.70;;;6.00;96.40;;;;;;5117549;28;20198;-47
2021/12/02 05:35:42;;;;;;;3.00;1.10;;;6.00;96.30;;;;;;5117752;28;20248;-47
2021/12/02 05:38:07;;;;;;;2.17;1.03;;;6.00;96.30;;;;;;5117754;28;20195;-46
2021/12/02 05:40:33;;;;;;;1.50;0.97;;;6.00;96.40;;;;;;5117687;28;20184;-46
2021/12/02 05:42:59;;;;;;;2.10;1.27;;;6.00;96.40;;;;;;5117852;28;20189;-46
2021/12/02 05:45:24;;;;;;;1.30;0.80;;;5.90;96.30;;;;;;5118438;28;20430;-46
2021/12/02 05:47:50;;;;;;;2.03;1.27;;;5.90;96.30;;;;;;5119407;28;20243;-47
2021/12/02 05:50:16;;;;;;;1.17;0.80;;;5.90;96.30;;;;;;5119423;28;20518;-47
2021/12/02 05:52:41;;;;;;;1.20;0.70;;;5.80;96.20;;;;;;5119190;28;20635;-47
2021/12/02 05:55:07;;;;;;;1.20;0.73;;;5.80;96.30;;;;;;5117933;28;20180;-46
2021/12/02 05:57:33;;;;;;;1.07;0.63;;;5.80;96.30;;;;;;5118049;28;20203;-46
2021/12/02 05:59:59;;;;;;;0.80;0.50;;;5.70;96.20;;;;;;5117643;28;20184;-47
2021/12/02 06:02:25;;;;;;;0.83;0.63;;;5.70;96.20;;;;;;5117328;28;20172;-46
2021/12/02 06:04:52;;;;;;;1.40;0.80;;;5.70;96.30;;;;;;5115663;28;20768;-47
2021/12/02 06:07:19;;;;;;;1.13;0.53;;;5.70;96.30;;;;;;5117149;28;20430;-47
2021/12/02 06:09:45;;;;;;;1.97;0.70;;;5.60;96.20;;;;;;5117227;28;20444;-46
2021/12/02 06:12:11;;;;;;;0.97;0.60;;;5.60;96.20;;;;;;5117216;28;20421;-46
2021/12/02 06:14:37;;;;;;;0.90;0.50;;;5.60;96.20;;;;;;5116816;28;20437;-46
2021/12/02 06:17:03;;;;;;;1.20;0.70;;;5.60;96.30;;;;;;5116878;28;20411;-46
2021/12/02 06:19:28;;;;;;;1.27;0.77;;;5.60;96.30;;;;;;5117063;28;20214;-46
2021/12/02 06:21:55;;;;;;;1.23;0.73;;;5.60;96.30;;;;;;5118188;28;20260;-46
2021/12/02 06:24:29;;;;;;;1.73;0.90;;;5.60;96.30;;;;;;5116315;28;20468;-46
2021/12/02 06:26:55;;;;;;;1.10;0.70;;;5.60;96.30;;;;;;5115499;28;20425;-47
2021/12/02 06:29:21;;;;;;;1.20;0.70;;;5.60;96.30;;;;;;5116613;28;20416;-46
2021/12/02 06:31:47;;;;;;;1.00;0.60;;;5.50;96.30;;;;;;5099021;28;20537;-47
2021/12/02 06:34:13;;;;;;;2.17;0.77;;;5.50;96.40;;;;;;5114624;28;20184;-47
2021/12/02 06:36:39;;;;;;;0.80;0.50;;;5.50;96.40;;;;;;5098709;28;20425;-48
2021/12/02 06:39:06;;;;;;;1.20;0.80;;;5.50;96.40;;;;;;5117442;28;20416;-47
2021/12/02 06:41:33;;;;;;;2.37;1.03;;;5.50;96.50;;;;;;5114009;28;20450;-47
2021/12/02 06:43:58;;;;;;;1.43;0.63;;;5.50;96.80;;;;;;5094854;28;20475;-47
2021/12/02 06:46:24;;;;;;;1.20;0.73;;;5.50;96.50;;;;;;5095031;28;20415;-47
2021/12/02 06:48:50;;;;;;;1.50;0.90;;;5.40;96.40;;;;;;5093625;28;20429;-47
2021/12/02 06:51:18;;;;;;;3.53;0.90;;;5.40;96.50;;;;;;5093486;28;20177;-47
2021/12/02 06:53:44;;;;;;;1.30;0.80;;;5.40;96.50;;;;;;5093113;28;20239;-47
2021/12/02 06:56:10;;;;;;;1.53;0.83;;;5.40;96.60;;;;;;5092792;28;20779;-47
2021/12/02 06:58:35;;;;;;;1.10;0.73;;;5.40;96.60;;;;;;5095161;28;20255;-47
2021/12/02 07:01:01;;;;;;;1.07;0.70;;;5.30;96.50;;;;;;5095083;28;20188;-47
2021/12/02 07:03:27;;;;;;;2.30;0.80;;;5.30;96.50;;;;;;5094153;28;20277;-47
2021/12/02 07:05:52;;;;;;;1.07;0.70;;;5.30;96.50;;;;;;5095440;28;20177;-47
2021/12/02 07:08:19;;;;;;;1.87;0.93;;;5.30;96.60;;;;;;5094981;28;20223;-47
2021/12/02 07:10:45;;;;;;;1.47;0.90;;;5.30;96.50;;;;;;5095750;28;20185;-47
2021/12/02 07:13:11;;;;;;;3.20;0.97;;;5.30;96.50;;;;;;5095916;28;20777;-47
2021/12/02 07:15:49;;;;;;;2.13;0.67;;;5.40;96.60;;;;;;5100220;28;20188;-47
2021/12/02 07:18:16;;;;;;;1.00;0.70;;;5.40;96.60;;;;;;5094675;28;20482;-47
2021/12/02 07:20:46;;;;;;;1.10;0.70;;;5.40;96.60;;;;;;5094684;28;20508;-47
2021/12/02 07:23:13;;;;;;;1.00;0.63;;;5.50;96.60;;;;;;5095616;28;20496;-47
2021/12/02 07:25:40;;;;;;;1.33;0.90;;;5.50;96.60;;;;;;5095382;28;20744;-47
2021/12/02 07:28:10;;;;;;;2.07;0.87;;;5.60;96.50;;;;;;5095357;28;20684;-47
2021/12/02 07:30:36;;;;;;;1.40;0.80;;;5.60;96.40;;;;;;5095870;28;20469;-47
2021/12/02 07:33:03;;;;;;;1.43;1.33;;;5.70;96.40;;;;;;5096672;28;20435;-47
2021/12/02 07:35:28;;;;;;;1.57;0.90;;;5.90;96.40;;;;;;5096274;28;20462;-47
2021/12/02 07:37:57;;;;;;;2.93;1.13;;;6.10;96.40;;;;;;5097607;28;20543;-47
2021/12/02 07:40:24;;;;;;;1.80;1.37;;;6.30;96.20;;;;;;5099675;28;20504;-47
2021/12/02 07:42:52;;;;;;;2.70;1.07;;;6.60;96.10;;;;;;5100027;28;20423;-47
2021/12/02 07:45:18;;;;;;;1.30;1.07;;;6.80;95.60;;;;;;5101005;28;20466;-47
2021/12/02 07:47:44;;;;;;;1.73;1.00;;;6.90;95.10;;;;;;5099666;28;20422;-47
2021/12/02 07:50:12;;;;;;;1.60;1.10;;;7.00;94.80;;;;;;5100650;28;20444;-47
2021/12/02 07:52:45;;;;;;;1.40;0.90;;;7.00;94.60;;;;;;5100076;28;20567;-47
2021/12/02 07:55:13;;;;;;;1.30;0.80;;;6.90;94.40;;;;;;5100455;28;20430;-47
2021/12/02 07:57:40;;;;;;;1.20;0.93;;;6.90;94.30;;;;;;5099568;28;20731;-47
2021/12/02 08:00:07;;;;;;;1.63;1.20;;;6.80;94.20;;;;;;5100443;28;20858;-47
2021/12/02 08:02:34;;;;;;;2.23;0.93;;;6.80;94.10;;;;;;5101378;28;20451;-43
2021/12/02 08:04:59;;;;;;;11.03;1.10;;;8.30;99.90;;;;;;5101066;28;20478;-44
2021/12/02 08:07:25;;;;;;;4.27;0.83;;;11.10;99.90;;;;;;5111058;28;20482;-45
2021/12/02 08:09:51;;;;;;;1.47;0.70;;;13.00;98.40;;;;;;5110700;28;20180;-43
2021/12/02 08:12:17;;;;;;;3.07;1.23;;;14.10;94.50;;;;;;5114468;28;20840;-44
2021/12/02 08:14:43;;;;;;;4.97;1.90;;;14.90;92.10;;;;;;5107912;28;20198;-42
2021/12/02 08:17:08;;;;;;;3.00;0.80;;;15.50;89.20;;;;;;5101189;28;20595;-41
2021/12/02 08:19:34;;;;;;;3.80;1.00;;;15.20;87.60;;;;;;5100184;28;20777;-41
2021/12/02 08:22:00;;;;;;;2.07;1.00;;;15.00;88.00;;;;;;5098657;28;20264;-43
2021/12/02 08:24:26;;;;;;;1.57;1.00;;;14.70;87.10;;;;;;5099244;28;20350;-41
2021/12/02 08:26:53;;;;;;;2.10;0.83;;;14.30;84.20;;;;;;5100335;28;20452;-42
2021/12/02 08:29:20;;;;;;;2.23;1.00;;;14.10;82.50;;;;;;5098949;28;20701;-41
2021/12/02 08:31:47;;;;;;;1.63;0.60;;;14.00;81.00;;;;;;5100097;28;20415;-41
2021/12/02 08:34:13;;;;;;;1.10;0.80;;;14.00;80.40;;;;;;5082068;28;20419;-41
2021/12/02 08:36:45;;;;;;;1.23;0.77;;;14.10;79.20;;;;;;5098633;28;20760;-40
2021/12/02 08:39:16;;;;;;;1.10;0.73;;;14.30;78.50;;;;;;5098403;28;20432;-43
2021/12/02 08:41:45;;;;;;;1.00;0.60;;;14.60;78.00;;;;;;5097155;28;20473;-42
2021/12/02 08:44:11;;;;;;;1.27;0.90;;;15.00;76.90;;;;;;5097816;28;20469;-42
2021/12/02 08:46:36;;;;;;;1.17;0.77;;;15.60;76.20;;;;;;5098517;28;20422;-42
2021/12/02 08:49:04;;;;;;;1.20;0.77;;;16.10;74.70;;;;;;5096732;28;20181;-41
2021/12/02 08:51:29;;;;;;;1.50;0.80;;;16.20;72.40;;;;;;5097318;28;20180;-42
2021/12/02 08:53:55;;;;;;;1.40;0.80;;;16.00;71.00;;;;;;5098285;28;20891;-43
2021/12/02 08:56:21;;;;;;;1.20;0.80;;;15.80;69.80;;;;;;5098981;28;20187;-43
2021/12/02 08:58:46;;;;;;;2.37;1.00;;;15.30;68.80;;;;;;5098898;28;20496;-43
2021/12/02 09:01:12;;;;;;;1.77;0.90;;;14.90;68.50;;;;;;5098244;28;20183;-43
2021/12/02 09:03:38;;;;;;;2.10;1.20;;;14.50;68.30;;;;;;5097081;28;20272;-42
2021/12/02 09:06:09;;;;;;;3.30;0.93;;;14.30;68.90;;;;;;5096865;28;20703;-43
2021/12/02 09:08:35;;;;;;;3.37;1.03;;;14.20;68.70;;;;;;5096356;28;20172;-43
2021/12/02 09:11:01;;;;;;;1.47;0.83;;;13.90;68.80;;;;;;5095331;28;20454;-41
2021/12/02 09:13:26;;;;;;;1.80;1.03;;;13.60;68.90;;;;;;5096094;28;20676;-42
2021/12/02 09:15:52;;;;;;;1.30;0.77;;;13.30;69.30;;;;;;5096720;28;20184;-42
2021/12/02 09:18:18;;;;;;;2.33;0.60;;;13.00;70.10;;;;;;5097494;28;20180;-41
2021/12/02 09:20:43;;;;;;;1.80;1.10;;;12.70;71.00;;;;;;5099293;28;20456;-41
2021/12/02 09:23:09;;;;;;;1.90;1.33;;;12.30;71.30;;;;;;5098908;28;20593;-41
2021/12/02 09:25:35;;;;;;;3.63;1.30;;;12.10;72.00;;;;;;5099136;28;20464;-41
2021/12/02 09:28:01;;;;;;;1.80;0.93;;;11.90;72.90;;;;;;5097468;28;20157;-41
2021/12/02 09:30:26;;;;;;;2.90;1.07;;;11.80;73.40;;;;;;5098435;28;20662;-42
2021/12/02 09:32:53;;;;;;;1.90;1.23;;;11.90;74.10;;;;;;5097992;28;20193;-42
2021/12/02 09:35:19;;;;;;;1.43;1.10;;;11.90;74.30;;;;;;5097592;28;20449;-41
2021/12/02 09:37:45;;;;;;;1.67;0.80;;;11.90;74.30;;;;;;5098347;28;20424;-41
2021/12/02 09:40:13;;;;;;;1.50;1.00;;;12.00;74.30;;;;;;5098416;28;20427;-41
2021/12/02 09:42:40;;;;;;;1.60;1.10;;;12.00;74.30;;;;;;5098321;28;20424;-40
2021/12/02 09:45:06;;;;;;;1.60;1.00;;;11.80;74.20;;;;;;5097645;28;20776;-40
2021/12/02 09:47:34;;;;;;;1.80;1.00;;;11.60;74.20;;;;;;5095548;28;20482;-40
2021/12/02 09:50:05;;;;;;;1.50;1.20;;;11.50;74.50;;;;;;5096834;28;20432;-41
2021/12/02 09:52:35;;;;;;;2.00;1.20;;;11.30;74.70;;;;;;5097749;28;20420;-42
2021/12/02 09:55:09;;;;;;;1.43;0.90;;;11.10;75.10;;;;;;5098004;28;20879;-41
2021/12/02 09:57:42;;;;;;;1.50;1.00;;;10.90;75.70;;;;;;5097542;28;20472;-40
2021/12/02 10:00:16;;;;;;;1.30;0.80;;;10.60;76.30;;;;;;5098543;28;20426;-41
2021/12/02 10:02:50;;;;;;;1.57;0.90;;;10.40;77.00;;;;;;5099260;28;20866;-41
2021/12/02 10:05:44;;;;;;;1.80;1.00;;;10.20;77.60;;;;;;5098888;28;20458;-40
2021/12/02 10:08:17;;;;;;;2.40;1.03;;;10.00;78.20;;;;;;5097290;28;20395;-42
2021/12/02 10:10:58;;;;;;;1.90;1.20;;;9.80;80.30;;;;;;5096785;28;20419;-41
2021/12/02 10:13:32;;;;;;;1.63;1.00;;;9.60;81.20;;;;;;5097584;28;20427;-40
2021/12/02 10:16:05;;;;;;;1.13;0.77;;;9.40;81.90;;;;;;5097199;28;20433;-41
2021/12/02 10:18:37;;;;;;;1.10;0.70;;;9.20;82.60;;;;;;5097435;28;20681;-41
2021/12/02 10:21:17;;;;;;;1.60;0.90;;;9.00;83.10;;;;;;5096754;28;20450;-42
2021/12/02 10:23:46;;;;;;;1.33;0.90;;;8.90;84.00;;;;;;5096866;28;20457;-41
2021/12/02 10:26:13;;;;;;;1.67;1.00;;;8.70;84.80;;;;;;5096067;28;20436;-40
2021/12/02 10:28:42;;;;;;;1.17;0.70;;;8.50;85.70;;;;;;5096656;28;20410;-41
2021/12/02 10:31:10;;;;;;;1.20;0.70;;;8.40;85.90;;;;;;5096841;28;20772;-40
2021/12/02 10:33:38;;;;;;;2.10;1.10;;;8.20;85.90;;;;;;5096038;28;20449;-39
2021/12/02 10:36:06;;;;;;;2.27;1.27;;;8.10;86.00;;;;;;5096930;28;20439;-40
2021/12/02 10:38:32;;;;;;;1.90;1.20;;;7.90;86.10;;;;;;5097739;28;20411;-39
2021/12/02 10:41:11;;;;;;;1.27;1.07;;;7.80;86.60;;;;;;5097318;28;20688;-39
2021/12/02 10:44:10;;;;;;;1.60;1.00;;;7.70;86.90;;;;;;5096447;28;20204;-39
2021/12/02 10:46:57;;;;;;;2.07;1.20;;;7.60;87.40;;;;;;5096913;28;20433;-40
2021/12/02 10:49:24;;;;;;;3.27;1.30;;;7.60;87.90;;;;;;5088197;28;20990;-41
2021/12/02 10:51:53;;;;;;;3.53;1.33;;;7.50;88.20;;;;;;5096476;28;20408;-41
2021/12/02 10:54:27;;;;;;;1.77;1.20;;;7.40;88.30;;;;;;5099039;28;20492;-40
2021/12/02 10:56:55;;;;;;;1.50;1.23;;;7.40;88.50;;;;;;5099610;28;20831;-40
2021/12/02 10:59:25;;;;;;;2.03;1.63;;;7.30;88.60;;;;;;5097926;28;20414;-41
2021/12/02 11:01:52;;;;;;;3.73;1.90;;;7.30;88.90;;;;;;5095522;28;20482;-41
2021/12/02 11:04:18;;;;;;;1.60;1.20;;;7.30;89.10;;;;;;5094354;28;20469;-40
2021/12/02 11:06:47;;;;;;;1.93;1.30;;;7.20;89.30;;;;;;5094875;28;20457;-40
2021/12/02 11:09:31;;;;;;;2.07;1.50;;;7.20;89.60;;;;;;5094048;28;20431;-40
2021/12/02 11:12:21;;;;;;;2.70;2.30;;;7.20;89.80;;;;;;5092836;28;20407;-40
2021/12/02 11:15:01;;;;;;;4.90;3.20;;;7.20;90.00;;;;;;5092461;28;20529;-41
2021/12/02 11:17:30;;;;;;;5.43;4.93;;;7.20;90.10;;;;;;5094321;28;20410;-40
2021/12/02 11:19:57;;;;;;;6.30;5.10;;;7.20;90.10;;;;;;5095244;28;20423;-41
2021/12/02 11:22:25;;;;;;;4.87;4.47;;;7.20;90.10;;;;;;5094853;28;20426;-40
2021/12/02 11:24:51;;;;;;;4.40;4.00;;;7.20;90.10;;;;;;5096002;28;20674;-41
2021/12/02 11:27:26;;;;;;;3.77;3.23;;;7.20;90.10;;;;;;5096062;28;20407;-41
2021/12/02 11:29:59;;;;;;;3.70;3.07;;;7.10;90.20;;;;;;5094485;28;20173;-41
2021/12/02 11:32:33;;;;;;;3.13;2.63;;;7.10;90.30;;;;;;5094362;28;20676;-41
2021/12/02 11:35:18;;;;;;;3.63;2.90;;;7.10;90.40;;;;;;5093118;28;20439;-41
2021/12/02 11:37:50;;;;;;;1.97;1.77;;;7.10;90.50;;;;;;5093673;28;20872;-40
2021/12/02 11:40:19;;;;;;;2.43;1.87;;;7.10;90.70;;;;;;5095095;28;20675;-41
2021/12/02 11:42:46;;;;;;;2.33;2.00;;;7.10;90.80;;;;;;5078097;28;20433;-41
2021/12/02 11:45:14;;;;;;;1.80;1.40;;;7.10;90.90;;;;;;5094885;28;20700;-41
2021/12/02 11:47:40;;;;;;;2.83;1.50;;;7.20;91.00;;;;;;5095859;28;20412;-41
2021/12/02 11:50:08;;;;;;;1.40;1.20;;;7.30;91.00;;;;;;5094890;28;20532;-42
2021/12/02 11:52:38;;;;;;;1.93;1.23;;;7.30;91.00;;;;;;5094833;28;20442;-39
2021/12/02 11:55:26;;;;;;;1.93;1.30;;;7.30;91.00;;;;;;5094300;28;20822;-41
2021/12/02 11:57:52;;;;;;;2.30;1.80;;;7.40;91.00;;;;;;5094194;28;20818;-40
2021/12/02 12:00:29;;;;;;;2.70;2.00;;;7.40;91.00;;;;;;5105679;28;20437;-41
2021/12/02 12:03:08;;;;;;;2.63;2.37;;;7.50;91.00;;;;;;5117008;28;20405;-41
2021/12/02 12:05:48;;;;;;;3.10;2.70;;;7.60;90.90;;;;;;5115407;28;20420;-43
2021/12/02 12:08:29;;;;;;;2.53;1.80;;;7.60;90.80;;;;;;5115215;28;20554;-40
2021/12/02 12:10:55;;;;;;;1.83;1.60;;;7.70;90.70;;;;;;5114679;28;20426;-42
2021/12/02 12:13:23;;;;;;;1.60;1.07;;;7.70;90.50;;;;;;5114378;28;20432;-40
2021/12/02 12:16:00;;;;;;;2.60;1.00;;;8.00;95.20;;;;;;5116080;28;20601;-40
2021/12/02 12:18:26;;;;;;;3.87;1.10;;;8.80;99.90;;;;;;5114548;28;20421;-41
2021/12/02 12:21:00;;;;;;;2.37;1.40;;;9.60;99.90;;;;;;5114611;28;20531;-43
2021/12/02 12:23:44;;;;;;;1.80;1.50;;;10.30;99.90;;;;;;5114386;28;20782;-41
2021/12/02 12:26:20;;;;;;;2.47;1.67;;;11.10;99.10;;;;;;5115858;28;20507;-41
2021/12/02 12:29:09;;;;;;;2.50;1.60;;;11.50;95.20;;;;;;5116863;28;20519;-40
2021/12/02 12:32:02;;;;;;;3.60;2.23;;;11.30;91.70;;;;;;5115883;28;20420;-41
2021/12/02 12:40:13;;;;;;;2.53;2.33;;;10.10;85.60;;;;;;5098317;28;20427;-40
2021/12/02 12:43:02;;;;;;;2.17;1.80;;;9.80;86.70;;;;;;5097464;28;20425;-40
2021/12/02 12:45:30;;;;;;;1.90;1.50;;;9.50;86.80;;;;;;5056955;28;20448;-41
2021/12/02 12:47:59;;;;;;;1.50;1.40;;;9.30;87.10;;;;;;5098508;28;20403;-41
2021/12/02 12:50:43;;;;;;;2.40;1.70;;;9.20;87.50;;;;;;5098622;28;20422;-41
2021/12/02 12:53:17;;;;;;;1.97;1.20;;;9.00;87.50;;;;;;5097501;28;20585;-42
2021/12/02 12:55:53;;;;;;;1.93;1.73;;;8.80;87.60;;;;;;5097098;28;20834;-41
2021/12/02 12:58:23;;;;;;;2.17;1.60;;;8.70;87.90;;;;;;5098058;28;20410;-41
2021/12/02 13:01:04;;;;;;;2.43;1.80;;;8.60;88.10;;;;;;5112644;28;20445;-39
2021/12/02 13:03:52;;;;;;;2.67;1.30;;;8.60;88.40;;;;;;5118073;28;20456;-41
2021/12/02 13:06:24;;;;;;;2.53;1.47;;;8.50;88.50;;;;;;5118769;28;20712;-41
2021/12/02 13:08:51;;;;;;;1.57;1.20;;;8.50;88.50;;;;;;5116145;28;20410;-41
2021/12/02 13:11:20;;;;;;;2.50;1.93;;;8.40;88.40;;;;;;5116607;28;20437;-41
2021/12/02 13:13:47;;;;;;;3.10;1.73;;;8.40;88.50;;;;;;5116717;28;20492;-42
2021/12/02 13:16:15;;;;;;;2.63;2.07;;;8.30;88.60;;;;;;5118279;28;20866;-41
2021/12/02 13:18:47;;;;;;;2.97;1.80;;;8.30;88.70;;;;;;5116369;28;20770;-39
2021/12/02 13:21:31;;;;;;;2.30;2.10;;;8.30;88.70;;;;;;5118252;28;20421;-40
2021/12/02 13:24:05;;;;;;;2.43;1.77;;;8.30;88.80;;;;;;5118169;28;20579;-40
2021/12/02 13:26:33;;;;;;;3.73;2.20;;;8.20;88.80;;;;;;5118055;28;20433;-44